Redondo, Valles Caldera, New Mexico Weather observations

Data are for 10 minute period ending at time listed.
 Day   Time   Solar   Ave.   Ave.  Ave.  Vector  Max.   Baro.   Total    
  of    of     Rad.   Air    Rel.  Wind   Wind   Wind  Press.  Precip.   
Year   Day            Temp.  Hum.  Speed  Dir.   Gust                    
2015   (MST)  Kw/m2    F      %     mph   deg.    mph    mb.     in.     
-------------------------------------------------------------------------
 185    9:30   0.81   60.0    70    4.3     0     7.8   695.6    0.00 
 185    9:40   0.88   60.5    69    3.8     0     7.2   695.6    0.00 
 185    9:50   0.92   61.8    66    4.0     0     9.6   695.5    0.00 
 185   10:00   0.98   62.0    66    4.3     0     9.0   695.4    0.00 
 185   10:10   1.03   63.2    63    3.9     0    10.8   695.5    0.00 
 185   10:20   0.89   63.3    66    3.3     0     9.6   695.5    0.00 
 185   10:30   0.96   63.8    65    4.2     0     9.0   695.5    0.00 
 185   10:40   0.30   62.2    67    4.0     0     8.4   695.6    0.00 
 185   10:50   0.06   58.6    76    5.4     0    11.3   695.6    0.04 
 185   11:00   0.02   52.2    85    4.6     0    10.8   695.7    0.18 
 185   11:10   0.03   48.1    86    2.0     0     5.4   695.6    0.05 
 185   11:20   0.03   49.2    90    3.3     0     7.2   695.5    0.00 
 185   11:30   0.04   50.8    89    3.5     0     8.4   695.8    0.00 
 185   11:40   0.05   51.0    88    1.5     0     3.6   695.9    0.00 
 185   11:50   0.07   51.0    88    1.9     0     3.6   695.9    0.00 
 185   12:00   0.09   51.0    88    1.5     0     2.4   695.7    0.00 
 185   12:10   0.10   51.5    85    0.9     0     1.8   695.7    0.00 
 185   12:20   0.11   51.1    86    0.5     0     2.4   695.6    0.00 
 185   12:30   0.13   50.9    86    1.5     0     4.8   695.4    0.00 
 185   12:40   0.17   51.6    81    0.5     0     3.0   695.1    0.00 
 185   12:50   0.21   52.3    79    1.4     0     5.4   695.1    0.00 
 185   13:00   0.24   53.6    75    1.2     0     3.0   694.9    0.00 
 185   13:10   0.30   54.9    71    0.8     0     2.4   694.8    0.00 
 185   13:20   0.35   56.7    65    0.5     0     1.8   694.8    0.00 
 185   13:30   0.41   58.8    55    0.0     0     1.2   694.8    0.00 
 185   13:40   0.52   61.8    54    0.9     0     4.8   694.7    0.00 
 185   13:50   0.57   63.2    51    1.8     0     4.8   694.6    0.00 
 185   14:00   0.59   62.9    50    1.9     0     4.2   694.6    0.00 
 185   14:10   0.39   62.0    54    1.6     0     4.8   694.6    0.00 
 185   14:20   0.30   61.6    59    1.1     0     3.0   694.6    0.00 
 185   14:30   0.25   61.2    58    1.3     0     4.2   694.6    0.00 
 185   14:40   0.20   59.5    61    1.8     0     4.8   694.6    0.00 
 185   14:50   0.20   58.9    64    1.7     0     3.6   694.6    0.00 
 185   15:00   0.21   59.1    66    0.9     0     3.6   694.6    0.00 
 185   15:10   0.26   59.7    65    0.9     0     3.6   694.6    0.00 
 185   15:20   0.29   60.0    63    2.4     0     4.8   694.5    0.00 
 185   15:30   0.34   60.1    62    2.1     0     4.8   694.4    0.00 
 185   15:40   0.47   60.9    62    2.6     0     6.0   694.4    0.00 
 185   15:50   0.55   61.9    64    3.0     0     6.6   694.4    0.00 
 185   16:00   0.34   60.7    66    3.1     0     6.6   694.2    0.00 
 185   16:10   0.27   59.4    68    3.0     0     6.0   694.2    0.00 
 185   16:20   0.22   58.8    71    2.5     0     5.4   694.2    0.00 
 185   16:30   0.20   58.3    74    2.7     0     6.6   694.2    0.00 
 185   16:40   0.20   57.8    74    2.9     0     6.0   694.2    0.00 
 185   16:50   0.19   57.7    76    2.8     0     6.6   694.2    0.00 
 185   17:00   0.17   57.4    76    3.0     0     8.4   694.2    0.00 
 185   17:10   0.15   56.8    70    2.6     0     7.2   694.2    0.00 
 185   17:20   0.13   56.6    67    2.2     0     4.2   694.2    0.00 
 185   17:30   0.12   56.7    63    1.8     0     5.4   694.2    0.00 
 185   17:40   0.12   56.6    62    2.6     0     6.6   694.2    0.00 
 185   17:50   0.11   56.4    63    2.7     0     7.2   694.3    0.00 
 185   18:00   0.10   56.2    63    2.9     0     6.6   694.3    0.00 
 185   18:10   0.09   55.9    64    1.2     0     4.2   694.3    0.00 
 185   18:20   0.07   55.8    65    1.1     0     4.8   694.5    0.00 
 185   18:30   0.06   55.7    63    2.1     0     5.4   694.5    0.00 
 185   18:40   0.04   55.3    62    2.5     0     5.4   694.6    0.00 
 185   18:50   0.04   54.9    62    2.5     0     5.4   694.6    0.00 
 185   19:00   0.02   54.8    63    0.7     0     3.6   694.7    0.00 
 185   19:10   0.01   54.3    64    1.3     0     6.6   694.8    0.00 
 185   19:20   0.00   54.1    64    2.1     0     4.8   694.9    0.00 
 185   19:30   0.00   53.9    64    1.9     0     4.8   695.0    0.00 
 185   19:40   0.00   53.8    64    1.6     0     4.2   694.9    0.00 
 185   19:50   0.00   53.7    65    1.5     0     4.8   694.9    0.00 
 185   20:00   0.00   53.4    66    1.3     0     4.2   694.9    0.00 
 185   20:10   0.00   53.4    68    1.1     0     4.2   694.9    0.00 
 185   20:20   0.00   53.5    70    0.7     0     3.0   694.9    0.00 
 185   20:30   0.00   53.3    71    0.5     0     3.6   695.0    0.00 
 185   20:40   0.00   52.9    71    1.0     0     3.6   695.1    0.00 
 185   20:50   0.00   52.6    72    1.1     0     4.2   695.1    0.00 
 185   21:00   0.00   52.1    75    0.8     0     2.4   695.2    0.00 
 185   21:10   0.00   51.4    80    1.1     0     3.0   695.3    0.00 
 185   21:20   0.00   50.8    82    0.3     0     2.4   695.4    0.00 
 185   21:30   0.00   50.8    82    0.8     0     2.4   695.5    0.00 
 185   21:40   0.00   51.3    79    0.3     0     1.8   695.6    0.00 
 185   21:50   0.00   51.8    76    1.0     0     2.4   695.6    0.00 
 185   22:00   0.00   51.8    78    0.6     0     3.0   695.6    0.00 
 185   22:10   0.00   51.4    80    0.1     0     2.4   695.6    0.00 
 185   22:20   0.00   51.2    81    0.5     0     2.4   695.6    0.00 
 185   22:30   0.00   51.0    82    0.1     0     1.2   695.7    0.00 
 185   22:40   0.00   50.6    83    0.0     0     0.0   695.7    0.00 
 185   22:50   0.00   50.8    80    0.1     0     1.8   695.6    0.00 
 185   23:00   0.00   51.4    76    0.1     0     1.8   695.5    0.00 
 185   23:10   0.00   51.6    75    0.4     0     1.8   695.4    0.00 
 185   23:20   0.00   51.7    74    0.0     0     1.2   695.4    0.00 
 185   23:30   100.00  99999.0   99999  99999.0   99999   99999.0   99999.0   99999.00 
 185   23:40   100.00  99999.0   99999  99999.0   99999   99999.0   99999.0   99999.00 
 185   23:50   100.00  99999.0   99999  99999.0   99999   99999.0   99999.0   99999.00 
 186    0:00   100.00  99999.0   99999  99999.0   99999   99999.0   99999.0   99999.00 
 186    0:10   100.00  99999.0   99999  99999.0   99999   99999.0   99999.0   99999.00 
 186    0:20   100.00  99999.0   99999  99999.0   99999   99999.0   99999.0   99999.00 
 186    0:30   100.00  99999.0   99999  99999.0   99999   99999.0   99999.0   99999.00 
 186    0:40   100.00  99999.0   99999  99999.0   99999   99999.0   99999.0   99999.00 
 186    0:50   100.00  99999.0   99999  99999.0   99999   99999.0   99999.0   99999.00 
 186    1:00   100.00  99999.0   99999  99999.0   99999   99999.0   99999.0   99999.00 
 186    1:10   100.00  99999.0   99999  99999.0   99999   99999.0   99999.0   99999.00 
 186    1:20   100.00  99999.0   99999  99999.0   99999   99999.0   99999.0   99999.00 
 186    1:30   100.00  99999.0   99999  99999.0   99999   99999.0   99999.0   99999.00 
 186    1:40   100.00  99999.0   99999  99999.0   99999   99999.0   99999.0   99999.00 
 186    1:50   100.00  99999.0   99999  99999.0   99999   99999.0   99999.0   99999.00 
 186    2:00   100.00  99999.0   99999  99999.0   99999   99999.0   99999.0   99999.00 
 186    2:10   100.00  99999.0   99999  99999.0   99999   99999.0   99999.0   99999.00 
 186    2:20   100.00  99999.0   99999  99999.0   99999   99999.0   99999.0   99999.00 
 186    2:30   100.00  99999.0   99999  99999.0   99999   99999.0   99999.0   99999.00 
 186    2:40   100.00  99999.0   99999  99999.0   99999   99999.0   99999.0   99999.00 
 186    2:50   100.00  99999.0   99999  99999.0   99999   99999.0   99999.0   99999.00 
 186    3:00   100.00  99999.0   99999  99999.0   99999   99999.0   99999.0   99999.00 
 186    3:10   100.00  99999.0   99999  99999.0   99999   99999.0   99999.0   99999.00 
 186    3:20   100.00  99999.0   99999  99999.0   99999   99999.0   99999.0   99999.00 
 186    3:30   100.00  99999.0   99999  99999.0   99999   99999.0   99999.0   99999.00 
 186    3:40   100.00  99999.0   99999  99999.0   99999   99999.0   99999.0   99999.00 
 186    3:50   100.00  99999.0   99999  99999.0   99999   99999.0   99999.0   99999.00 
 186    4:00   100.00  99999.0   99999  99999.0   99999   99999.0   99999.0   99999.00 
 186    4:10   100.00  99999.0   99999  99999.0   99999   99999.0   99999.0   99999.00 
 186    4:20   100.00  99999.0   99999  99999.0   99999   99999.0   99999.0   99999.00 
 186    4:30   100.00  99999.0   99999  99999.0   99999   99999.0   99999.0   99999.00 
 186    4:40   100.00  99999.0   99999  99999.0   99999   99999.0   99999.0   99999.00 
 186    4:50   100.00  99999.0   99999  99999.0   99999   99999.0   99999.0   99999.00 
 186    5:00   100.00  99999.0   99999  99999.0   99999   99999.0   99999.0   99999.00 
 186    5:10   100.00  99999.0   99999  99999.0   99999   99999.0   99999.0   99999.00 
 186    5:20   100.00  99999.0   99999  99999.0   99999   99999.0   99999.0   99999.00 
 186    5:30   100.00  99999.0   99999  99999.0   99999   99999.0   99999.0   99999.00 
 186    5:40   100.00  99999.0   99999  99999.0   99999   99999.0   99999.0   99999.00 
 186    5:50   100.00  99999.0   99999  99999.0   99999   99999.0   99999.0   99999.00 
 186    6:00   100.00  99999.0   99999  99999.0   99999   99999.0   99999.0   99999.00 
 186    6:10   100.00  99999.0   99999  99999.0   99999   99999.0   99999.0   99999.00 
 186    6:20   100.00  99999.0   99999  99999.0   99999   99999.0   99999.0   99999.00 
 186    6:30   100.00  99999.0   99999  99999.0   99999   99999.0   99999.0   99999.00 
 186    6:40   100.00  99999.0   99999  99999.0   99999   99999.0   99999.0   99999.00 
 186    6:50   100.00  99999.0   99999  99999.0   99999   99999.0   99999.0   99999.00 
 186    7:00   100.00  99999.0   99999  99999.0   99999   99999.0   99999.0   99999.00 
 186    7:10   100.00  99999.0   99999  99999.0   99999   99999.0   99999.0   99999.00 
 186    7:20   100.00  99999.0   99999  99999.0   99999   99999.0   99999.0   99999.00 
 186    7:30   0.22   54.6    67    2.8     0     7.2   694.9    0.00 
 186    7:40   0.26   54.7    67    3.1     0     6.0   695.0    0.00 
 186    7:50   0.23   54.9    68    1.5     0     4.8   695.0    0.00 
 186    8:00   0.25   55.0    69    2.0     0     6.0   695.0    0.00 
 186    8:10   0.30  986.0     0    1.9     0    -4.1   732.3    0.34 
 186    8:20   100.00  99999.0   99999  99999.0   99999   99999.0   99999.0   99999.00 
 186    8:30   0.36   55.9    68    2.9     0     6.6   695.0    0.00 
 186    8:40   0.38   55.8    69    3.4     0     7.8   695.1    0.00 
 186    8:50   0.53   57.3    68    2.3     0     6.0   695.0    0.00 
 186    9:00   0.41   57.1    68    4.0     0    10.2   695.0    0.00 
 186    9:10   0.32   55.8    68    3.8     0     7.8   694.9    0.00 
 186    9:20   0.43   56.0    67    3.1     0     7.8   695.0    0.00 

Return to Redondo, Valles Caldera graphs page.


Western Regional Climate Center,wrcc@dri.edu